Time;durP1;ratioP1;P1;durP2;ratioP2;P2;SDS_P1;SDS_P2;PMS_P1;PMS_P2;Temp;Humidity;BMP_temperature;BMP_pressure;BME280_temperature;BME280_humidity;BME280_pressure;Samples;Min_cycle;Max_cycle;Signal;HPM_P1;HPM_P2
2023/03/07 00:02:30;;;;;;;17.40;12.20;;;;;;;2.78;100.00;98957.14;181088;1264;57899;-70
2023/03/07 00:06:59;;;;;;;19.50;11.80;;;;;;;2.72;100.00;98955.63;181118;1265;43402;-75
2023/03/07 00:11:06;;;;;;;15.30;11.10;;;;;;;2.68;100.00;98952.20;181143;1264;43132;-72
2023/03/07 00:15:10;;;;;;;17.30;11.30;;;;;;;2.73;100.00;98945.77;181027;1264;43029;-71
2023/03/07 00:19:13;;;;;;;16.50;13.70;;;;;;;2.82;100.00;98940.77;181144;1264;42971;-72
2023/03/07 00:23:42;;;;;;;19.00;12.60;;;;;;;2.90;100.00;98938.27;181227;1264;59441;-71
2023/03/07 00:27:45;;;;;;;13.50;10.30;;;;;;;2.86;100.00;98941.55;181186;1264;43733;-72
2023/03/07 00:31:48;;;;;;;16.20;12.00;;;;;;;2.72;100.00;98935.98;181140;1264;42970;-74
2023/03/07 00:35:56;;;;;;;19.00;12.70;;;;;;;2.61;100.00;98936.40;181208;1264;43263;-71
2023/03/07 00:40:56;;;;;;;21.10;14.70;;;;;;;2.58;100.00;98929.09;181194;1264;43672;-73
2023/03/07 00:44:59;;;;;;;20.40;18.00;;;;;;;2.71;100.00;98921.52;181198;1265;57989;-72
2023/03/07 00:49:15;;;;;;;26.60;14.10;;;;;;;2.67;100.00;98921.13;181187;1264;43675;-74
2023/03/07 00:53:18;;;;;;;18.90;14.10;;;;;;;2.61;100.00;98914.94;181216;1266;43058;-71
2023/03/07 00:57:26;;;;;;;20.50;13.20;;;;;;;2.65;100.00;98911.64;181140;1264;43399;-75
2023/03/07 01:01:29;;;;;;;28.00;17.50;;;;;;;2.65;100.00;98910.04;181127;1265;43043;-71
2023/03/07 01:06:26;;;;;;;20.80;15.50;;;;;;;2.73;100.00;98901.98;181111;1264;57929;-71
2023/03/07 01:10:32;;;;;;;25.50;15.40;;;;;;;2.71;100.00;98897.38;181232;1264;43107;-71
2023/03/07 01:14:50;;;;;;;24.40;14.90;;;;;;;2.69;100.00;98889.78;181217;1264;43747;-72
2023/03/07 01:18:56;;;;;;;28.30;18.20;;;;;;;2.70;100.00;98884.81;181107;1265;43663;-70
2023/03/07 01:23:00;;;;;;;24.80;17.60;;;;;;;2.80;100.00;98882.76;181142;1264;43010;-72
2023/03/07 01:28:04;;;;;;;25.80;18.00;;;;;;;2.88;100.00;98872.02;181108;1264;56906;-71
2023/03/07 01:32:07;;;;;;;32.60;25.00;;;;;;;2.99;100.00;98866.66;181265;1264;43503;-71
2023/03/07 01:36:28;;;;;;;44.50;29.10;;;;;;;2.98;100.00;98861.45;181187;1265;42986;-71
2023/03/07 01:40:32;;;;;;;38.10;26.00;;;;;;;2.84;100.00;98851.99;180966;1265;44066;-70
2023/03/07 01:50:24;;;;;;;38.00;22.80;;;;;;;2.67;100.00;98845.48;181205;1265;57901;-71
2023/03/07 01:54:29;;;;;;;27.70;19.10;;;;;;;2.54;100.00;98840.34;181099;1265;43712;-71
2023/03/07 01:58:36;;;;;;;35.30;21.80;;;;;;;2.41;100.00;98835.67;181133;1264;43391;-71
2023/03/07 02:02:42;;;;;;;34.50;19.30;;;;;;;2.15;100.00;98830.98;181092;1265;43114;-71
2023/03/07 02:07:16;;;;;;;30.90;18.90;;;;;;;2.01;100.00;98829.67;181063;1265;43007;-70
2023/03/07 02:11:19;;;;;;;74.60;31.60;;;;;;;1.86;100.00;98823.70;181127;1265;57890;-71
2023/03/07 02:15:22;;;;;;;84.90;39.30;;;;;;;1.76;100.00;98815.64;181080;1265;43443;-71
2023/03/07 02:20:19;;;;;;;73.30;40.50;;;;;;;1.81;100.00;98815.46;181127;1268;43042;-72
2023/03/07 02:24:33;;;;;;;40.10;23.60;;;;;;;1.88;100.00;98809.56;180721;1270;43184;-70
2023/03/07 02:28:38;;;;;;;39.10;23.40;;;;;;;1.95;100.00;98805.80;180770;1270;43814;-71
2023/03/07 02:32:41;;;;;;;39.20;23.20;;;;;;;1.98;100.00;98799.48;180849;1270;58353;-69
2023/03/07 02:36:46;;;;;;;44.10;27.60;;;;;;;2.00;100.00;98795.13;180757;1271;43173;-70
2023/03/07 02:40:52;;;;;;;57.10;38.70;;;;;;;1.94;100.00;98797.30;180758;1270;43685;-71
2023/03/07 02:45:00;;;;;;;79.70;46.80;;;;;;;1.83;100.00;98790.72;180421;1269;43404;-72
2023/03/07 02:49:04;;;;;;;48.70;31.20;;;;;;;1.76;100.00;98790.45;180538;1271;43842;-71
2023/03/07 02:53:07;;;;;;;57.10;34.50;;;;;;;1.73;100.00;98784.87;180728;1270;57245;-71
2023/03/07 03:03:14;;;;;;;44.50;28.00;;;;;;;1.65;100.00;98770.58;181199;1264;43729;-71
2023/03/07 03:07:18;;;;;;;40.80;28.90;;;;;;;1.62;100.00;98762.91;181200;1264;43848;-70
2023/03/07 03:12:13;;;;;;;53.10;31.50;;;;;;;1.62;100.00;98762.63;181179;1264;43070;-70
2023/03/07 03:16:16;;;;;;;45.00;26.30;;;;;;;1.61;100.00;98756.23;181179;1264;57923;-69
2023/03/07 03:20:20;;;;;;;50.30;27.70;;;;;;;1.46;100.00;98752.66;181094;1265;43073;-71
2023/03/07 03:24:23;;;;;;;45.20;27.50;;;;;;;1.59;100.00;98748.52;181074;1265;43786;-70
2023/03/07 03:28:26;;;;;;;54.60;34.80;;;;;;;1.54;100.00;98748.11;181125;1265;43109;-70
2023/03/07 03:32:29;;;;;;;47.20;28.20;;;;;;;1.57;100.00;98742.83;181056;1264;43575;-70
2023/03/07 03:36:32;;;;;;;53.60;31.50;;;;;;;1.49;100.00;98735.54;181163;1265;57988;-70
2023/03/07 03:40:37;;;;;;;41.80;23.70;;;;;;;1.57;100.00;98736.23;181084;1264;43086;-71
2023/03/07 03:44:40;;;;;;;49.20;31.90;;;;;;;1.70;100.00;98725.48;181097;1265;43033;-70
2023/03/07 03:48:44;;;;;;;35.40;27.00;;;;;;;1.79;100.00;98721.03;181090;1265;43446;-70
2023/03/07 03:52:47;;;;;;;47.80;28.10;;;;;;;1.88;100.00;98714.64;181093;1265;43762;-71
2023/03/07 03:57:17;;;;;;;50.70;29.10;;;;;;;1.93;100.00;98710.98;181191;1264;58495;-70
2023/03/07 04:01:23;;;;;;;44.70;27.20;;;;;;;1.95;100.00;98709.80;181146;1264;43685;-70
2023/03/07 04:05:26;;;;;;;44.80;26.00;;;;;;;1.93;100.00;98709.24;181167;1264;43373;-69
2023/03/07 04:09:33;;;;;;;40.80;27.50;;;;;;;2.02;100.00;98704.42;181158;1264;43212;-70
2023/03/07 04:13:36;;;;;;;;;;;;;;;2.07;100.00;98702.43;181195;1265;43737;-73
2023/03/07 04:17:39;;;;;;;36.40;21.90;;;;;;;2.11;100.00;98699.71;181127;1265;58029;-73
2023/03/07 04:21:42;;;;;;;34.20;21.60;;;;;;;2.09;100.00;98693.73;181048;1265;43755;-73
2023/03/07 04:26:19;;;;;;;33.30;22.90;;;;;;;2.07;100.00;98688.45;181151;1264;43670;-73
2023/03/07 04:30:22;;;;;;;33.20;21.70;;;;;;;2.00;100.00;98682.15;181193;1265;43068;-74
2023/03/07 04:34:29;;;;;;;38.60;20.80;;;;;;;2.03;100.00;98680.73;181091;1264;43139;-73
2023/03/07 04:38:33;;;;;;;36.30;23.50;;;;;;;2.03;100.00;98678.79;181110;1265;58310;-73
2023/03/07 04:42:37;;;;;;;40.70;22.70;;;;;;;2.04;100.00;98672.42;181098;1265;43080;-73
2023/03/07 04:46:40;;;;;;;31.90;22.00;;;;;;;2.02;100.00;98667.33;181242;1264;43670;-73
2023/03/07 04:55:48;;;;;;;31.90;19.40;;;;;;;1.86;100.00;98656.39;181305;1263;43131;-73
2023/03/07 05:00:32;;;;;;;;;;;;;;;1.96;100.00;98648.71;152836;1267;5004494;-73
2023/03/07 05:14:54;;;;;;;29.30;19.10;;;;;;;2.09;100.00;98623.44;181059;1267;43497;-73
2023/03/07 05:19:24;;;;;;;31.60;19.60;;;;;;;2.20;100.00;98621.27;181016;1267;43683;-72
2023/03/07 05:23:28;;;;;;;32.60;21.00;;;;;;;2.34;99.92;98615.33;180424;1266;86350;-87
2023/03/07 05:47:51;;;;;;;;;;;;;;;2.63;96.55;98602.99;157954;1265;80201;-75
2023/03/07 05:51:54;;;;;;;;;;;;;;;2.65;95.77;98598.83;181106;1267;42836;-72
2023/03/07 05:55:59;;;;;;;34.40;22.80;;;;;;;2.66;94.96;98593.71;181120;1267;43240;-73
2023/03/07 06:00:10;;;;;;;34.30;22.50;;;;;;;2.63;94.48;98593.73;181113;1267;43073;-74
2023/03/07 06:04:13;;;;;;;40.40;24.70;;;;;;;2.63;94.25;98595.36;181137;1266;43391;-75
2023/03/07 06:08:16;;;;;;;33.50;22.60;;;;;;;2.65;94.03;98588.84;181026;1267;57793;-73
2023/03/07 06:12:20;;;;;;;40.30;23.90;;;;;;;2.64;93.92;98590.19;180997;1267;44125;-72
2023/03/07 06:16:23;;;;;;;40.40;23.50;;;;;;;2.71;93.85;98587.91;181069;1266;43050;-72
2023/03/07 06:20:26;;;;;;;35.30;26.60;;;;;;;2.76;94.47;98583.90;181003;1265;43867;-72
2023/03/07 06:24:45;;;;;;;33.00;20.00;;;;;;;2.85;94.66;98582.25;181022;1267;43027;-73
2023/03/07 06:28:49;;;;;;;44.20;27.40;;;;;;;3.08;94.64;98574.40;180932;1265;58212;-72
2023/03/07 06:32:52;;;;;;;37.00;24.50;;;;;;;3.30;94.02;98574.58;181141;1265;43097;-72
2023/03/07 06:37:00;;;;;;;37.80;25.50;;;;;;;3.44;93.00;98566.83;181183;1265;43386;-72
2023/03/07 06:41:03;;;;;;;31.10;22.40;;;;;;;3.61;91.85;98561.65;181151;1265;43141;-73
2023/03/07 06:45:07;;;;;;;33.20;22.20;;;;;;;3.73;90.78;98560.49;181105;1267;43762;-74
2023/03/07 06:49:10;;;;;;;29.50;21.70;;;;;;;3.80;90.12;98558.54;181077;1267;57812;-73
2023/03/07 06:53:13;;;;;;;36.30;21.70;;;;;;;3.99;89.60;98552.63;181082;1267;43122;-75
2023/03/07 06:57:17;;;;;;;47.10;28.20;;;;;;;4.15;88.73;98544.62;181076;1266;43707;-73
2023/03/07 07:01:21;;;;;;;42.70;25.60;;;;;;;4.27;88.53;98538.97;181048;1267;43140;-75
2023/03/07 07:05:25;;;;;;;32.80;24.30;;;;;;;4.44;87.55;98539.33;181051;1265;43620;-72
2023/03/07 07:09:28;;;;;;;33.60;21.60;;;;;;;4.57;87.78;98538.71;181112;1265;58328;-74
2023/03/07 07:13:31;;;;;;;32.10;22.40;;;;;;;4.75;86.56;98543.15;181138;1265;43058;-73
2023/03/07 07:17:35;;;;;;;34.00;22.90;;;;;;;4.89;85.56;98548.16;181104;1269;43131;-72
2023/03/07 07:21:38;;;;;;;36.60;21.40;;;;;;;4.98;85.54;98541.78;181038;1265;43912;-72
2023/03/07 07:25:41;;;;;;;28.60;22.10;;;;;;;5.05;85.15;98537.28;181064;1267;44073;-74
2023/03/07 07:29:44;;;;;;;26.30;21.50;;;;;;;5.10;84.54;98531.78;180951;1267;58791;-73
2023/03/07 07:33:47;;;;;;;33.00;21.90;;;;;;;5.15;84.64;98532.02;181008;1267;43000;-72
2023/03/07 07:37:50;;;;;;;32.80;20.70;;;;;;;5.31;85.22;98528.53;181134;1267;42941;-73
2023/03/07 07:41:53;;;;;;;31.60;21.40;;;;;;;5.51;85.09;98520.30;181024;1266;43513;-72
2023/03/07 07:45:56;;;;;;;38.30;23.50;;;;;;;5.74;85.01;98522.48;180977;1265;43020;-76
2023/03/07 07:50:51;;;;;;;33.60;21.80;;;;;;;5.90;82.67;98515.21;181031;1266;58796;-72
2023/03/07 07:55:20;;;;;;;25.60;19.20;;;;;;;6.12;82.00;98511.98;181081;1267;43187;-72
2023/03/07 07:59:23;;;;;;;30.70;20.00;;;;;;;6.26;80.13;98510.77;181112;1265;43019;-72
2023/03/07 08:03:27;;;;;;;29.50;20.00;;;;;;;6.44;80.53;98499.62;180963;1266;43775;-72
2023/03/07 08:07:30;;;;;;;31.50;20.60;;;;;;;6.64;79.08;98489.36;181046;1267;43667;-71
2023/03/07 08:11:38;;;;;;;25.20;18.50;;;;;;;6.82;79.35;98483.71;180939;1266;57887;31
2023/03/07 08:21:42;;;;;;;28.70;18.40;;;;;;;7.29;76.48;98464.50;150201;1264;80731;-72
2023/03/07 09:08:55;;;;;;;23.50;15.60;;;;;;;7.28;73.39;98456.83;180888;1267;43303;-72
2023/03/07 09:12:59;;;;;;;20.20;14.50;;;;;;;7.28;72.82;98447.44;181025;1267;43696;-72
2023/03/07 09:17:03;;;;;;;17.40;13.30;;;;;;;7.39;74.24;98447.45;181035;1267;43072;-72
2023/03/07 09:21:06;;;;;;;16.50;12.80;;;;;;;7.42;74.07;98446.61;180918;1267;43355;-72
2023/03/07 09:25:09;;;;;;;18.20;13.00;;;;;;;7.38;73.05;98436.96;180970;1267;57900;-72
2023/03/07 09:29:12;;;;;;;18.00;12.00;;;;;;;7.32;73.56;98438.11;180992;1267;43061;-72
2023/03/07 09:33:16;;;;;;;12.30;9.50;;;;;;;7.35;73.16;98437.65;180898;1268;43749;-73
2023/03/07 09:37:19;;;;;;;12.50;6.80;;;;;;;7.32;72.75;98433.33;181105;1265;43119;-72
2023/03/07 09:55:39;;;;;;;12.90;6.60;;;;;;;7.26;73.38;98428.81;172532;1270;44462;-85
2023/03/07 09:59:49;;;;;;;11.10;7.00;;;;;;;7.17;72.18;98421.23;179973;1269;43860;-84
2023/03/07 10:04:05;;;;;;;9.60;7.00;;;;;;;7.14;72.77;98421.81;179930;1270;44022;-84
2023/03/07 10:08:14;;;;;;;12.20;7.90;;;;;;;7.13;72.42;98417.48;180024;1270;59604;-84
2023/03/07 10:12:26;;;;;;;9.20;6.30;;;;;;;7.19;73.57;98413.80;179912;1269;43778;-84
2023/03/07 10:17:01;;;;;;;9.30;6.30;;;;;;;7.14;71.40;98415.01;179921;1269;43806;-84
2023/03/07 10:21:10;;;;;;;11.00;6.50;;;;;;;7.13;71.73;98413.28;180004;1272;44021;-84
2023/03/07 10:25:30;;;;;;;8.50;6.00;;;;;;;7.17;70.47;98411.04;180175;1269;43758;-84
2023/03/07 10:29:44;;;;;;;8.40;5.70;;;;;;;7.17;70.56;98407.66;179921;1269;58037;-84
2023/03/07 10:33:50;;;;;;;9.00;6.70;;;;;;;7.40;72.27;98404.34;179930;1270;43753;-84
2023/03/07 10:37:59;;;;;;;8.20;6.40;;;;;;;7.46;70.67;98404.13;180095;1270;43761;-84
2023/03/07 10:42:02;;;;;;;6.70;5.30;;;;;;;7.46;69.67;98403.76;179976;1268;43967;-84
2023/03/07 10:46:14;;;;;;;8.60;5.80;;;;;;;7.53;70.77;98401.80;179907;1270;43793;-84
2023/03/07 10:51:06;;;;;;;10.60;5.80;;;;;;;7.54;70.93;98400.80;180095;1270;59741;-84
2023/03/07 10:55:33;;;;;;;8.00;6.60;;;;;;;7.62;71.08;98395.66;178778;1276;43737;-84
2023/03/07 10:59:39;;;;;;;7.50;5.80;;;;;;;7.68;71.27;98390.09;178870;1276;44147;-84
2023/03/07 11:03:49;;;;;;;8.80;6.30;;;;;;;7.62;69.25;98381.86;178589;1277;43923;-85
2023/03/07 11:07:57;;;;;;;9.90;6.50;;;;;;;7.62;69.84;98381.05;178760;1276;44168;-84
2023/03/07 11:12:03;;;;;;;8.90;5.40;;;;;;;7.62;69.66;98374.71;178779;1276;57990;-84
2023/03/07 11:16:14;;;;;;;8.20;5.40;;;;;;;7.74;70.75;98368.49;178828;1276;44303;-84
2023/03/07 11:20:23;;;;;;;9.40;5.60;;;;;;;7.77;69.30;98367.33;178721;1276;44570;-84
2023/03/07 11:24:29;;;;;;;9.10;5.90;;;;;;;7.84;69.49;98370.54;178841;1276;44283;-84
2023/03/07 11:28:34;;;;;;;6.10;4.80;;;;;;;7.91;69.21;98359.92;178792;1276;43852;-84
2023/03/07 11:32:42;;;;;;;8.20;5.50;;;;;;;7.95;70.03;98360.11;179721;1270;58867;-85
2023/03/07 11:36:55;;;;;;;8.50;5.10;;;;;;;7.91;68.66;98358.52;179758;1270;44111;-84
2023/03/07 11:41:28;;;;;;;9.20;5.20;;;;;;;7.97;69.98;98352.98;179898;1270;44233;-84
2023/03/07 11:45:55;;;;;;;6.60;4.80;;;;;;;8.05;70.78;98345.17;180189;1270;44018;-85
2023/03/07 11:50:17;;;;;;;4.70;3.00;;;;;;;8.03;68.91;98340.70;179985;1269;43948;-85
2023/03/07 11:54:44;;;;;;;4.40;3.20;;;;;;;7.94;69.10;98332.71;180100;1270;59646;-85
2023/03/07 11:58:58;;;;;;;4.50;3.90;;;;;;;7.87;68.25;98329.37;179017;1276;44198;-84
2023/03/07 12:03:19;;;;;;;4.50;3.70;;;;;;;7.82;68.35;98324.36;179004;1276;43854;-85
2023/03/07 12:07:25;;;;;;;2.20;2.00;;;;;;;7.81;68.67;98324.64;178888;1276;43730;-85
2023/03/07 12:11:40;;;;;;;4.30;3.70;;;;;;;7.74;68.70;98319.99;178989;1276;43803;-85
2023/03/07 12:15:59;;;;;;;3.90;2.40;;;;;;;7.80;69.35;98315.91;178985;1276;58634;-85
2023/03/07 12:20:29;;;;;;;3.40;2.90;;;;;;;7.85;69.04;98307.85;178906;1275;44033;-85
2023/03/07 12:24:45;;;;;;;3.70;2.80;;;;;;;7.94;68.82;98296.27;178844;1276;43762;-85
2023/03/07 12:28:54;;;;;;;3.50;2.90;;;;;;;8.04;68.98;98291.23;178872;1275;43887;-85
2023/03/07 12:32:58;;;;;;;4.00;2.70;;;;;;;8.17;68.48;98281.44;178841;1276;44136;-85
2023/03/07 12:37:31;;;;;;;4.70;3.50;;;;;;;8.24;69.08;98281.74;179887;1270;58708;-85
2023/03/07 12:41:49;;;;;;;4.40;3.00;;;;;;;8.22;67.28;98285.34;180208;1269;43908;-85
2023/03/07 12:46:06;;;;;;;4.70;2.80;;;;;;;8.32;68.73;98279.33;180153;1269;43655;-85
2023/03/07 12:50:45;;;;;;;3.60;3.10;;;;;;;8.33;67.30;98276.80;180043;1269;44014;-85
2023/03/07 12:55:26;;;;;;;4.90;2.80;;;;;;;8.42;69.27;98276.52;178792;1275;43842;-85
2023/03/07 12:59:35;;;;;;;5.00;2.70;;;;;;;8.45;68.26;98270.38;178106;1282;59590;-85
2023/03/07 13:04:25;;;;;;;3.00;2.80;;;;;;;8.47;66.75;98262.58;177913;1280;43901;-85
2023/03/07 13:08:29;;;;;;;5.00;3.50;;;;;;;8.50;67.28;98263.74;177008;1286;44181;-85
2023/03/07 13:12:35;;;;;;;3.70;2.90;;;;;;;8.63;67.13;98256.36;176979;1285;44106;-85
2023/03/07 13:16:44;;;;;;;3.60;2.10;;;;;;;8.77;67.40;98255.59;176827;1285;44173;-85
2023/03/07 13:21:06;;;;;;;4.20;2.50;;;;;;;8.85;66.94;98252.05;176859;1285;58349;-85
2023/03/07 13:25:18;;;;;;;3.40;2.10;;;;;;;8.86;66.66;98249.49;176810;1286;44170;-85
2023/03/07 13:29:58;;;;;;;4.80;2.90;;;;;;;8.90;66.49;98245.16;177689;1282;43861;-85
2023/03/07 13:34:39;;;;;;;3.00;2.40;;;;;;;8.95;65.64;98244.10;178066;1276;44339;-85
2023/03/07 13:38:43;;;;;;;8.80;6.20;;;;;;;9.14;69.06;98244.44;178702;1276;43822;-85
2023/03/07 13:42:47;;;;;;;13.30;8.00;;;;;;;9.29;70.29;98242.55;179057;1269;58300;-85
2023/03/07 13:46:54;;;;;;;8.10;6.30;;;;;;;9.37;70.56;98243.88;180063;1268;44105;-85
2023/03/07 13:50:57;;;;;;;4.30;3.30;;;;;;;9.58;71.91;98234.73;179951;1270;44005;-86
2023/03/07 13:55:03;;;;;;;2.60;2.30;;;;;;;9.60;65.24;98222.06;180139;1269;43989;-85
2023/03/07 13:59:12;;;;;;;7.10;2.50;;;;;;;9.58;65.07;98214.47;180010;1267;44480;-85
2023/03/07 14:03:33;;;;;;;5.40;3.10;;;;;;;9.47;65.44;98208.25;180335;1268;60224;-85
2023/03/07 14:07:40;;;;;;;4.20;3.50;;;;;;;9.42;65.93;98205.65;179908;1268;43855;-83
2023/03/07 14:11:49;;;;;;;5.20;4.70;;;;;;;9.35;65.75;98202.39;179886;1268;44183;-82
2023/03/07 14:16:23;;;;;;;5.40;4.40;;;;;;;9.19;65.08;98202.35;180132;1267;43844;-83
2023/03/07 14:20:55;;;;;;;5.40;4.30;;;;;;;8.99;66.12;98196.90;179914;1270;43986;-82
2023/03/07 14:25:01;;;;;;;4.80;3.70;;;;;;;8.80;65.68;98195.39;179786;1269;60468;-82
2023/03/07 14:29:21;;;;;;;12.00;6.40;;;;;;;8.73;66.39;98189.39;179936;1270;44084;-82
2023/03/07 14:33:35;;;;;;;6.20;5.10;;;;;;;8.66;68.21;98188.49;180047;1269;44147;-82
2023/03/07 14:37:39;;;;;;;6.40;5.80;;;;;;;8.67;68.84;98185.05;179858;1270;45743;-82
2023/03/07 14:41:48;;;;;;;4.40;3.90;;;;;;;8.69;68.80;98181.73;179751;1270;43791;-82
2023/03/07 14:46:10;;;;;;;9.20;5.40;;;;;;;8.67;67.51;98182.73;179731;1269;60298;-82
2023/03/07 14:50:20;;;;;;;7.70;3.90;;;;;;;8.57;66.92;98172.68;179927;1268;44390;-82
2023/03/07 14:54:30;;;;;;;7.50;4.20;;;;;;;8.49;67.34;98181.36;179893;1270;43836;-81
2023/03/07 14:58:36;;;;;;;6.30;4.20;;;;;;;8.44;68.40;98178.11;179888;1269;44325;-82
2023/03/07 15:02:54;;;;;;;4.70;3.90;;;;;;;8.45;69.33;98176.02;179861;1270;43990;-81
2023/03/07 15:07:00;;;;;;;7.20;4.50;;;;;;;8.41;69.21;98170.26;179931;1270;59684;-81
2023/03/07 15:11:22;;;;;;;6.20;5.60;;;;;;;8.39;68.47;98165.71;179474;1269;43915;-81
2023/03/07 15:15:34;;;;;;;4.50;3.50;;;;;;;8.39;68.02;98160.41;179742;1270;44149;-82
2023/03/07 15:19:53;;;;;;;4.60;3.80;;;;;;;8.40;68.88;98165.13;179785;1269;43775;-83
2023/03/07 15:23:57;;;;;;;8.60;6.50;;;;;;;8.38;69.19;98163.92;179636;1270;43895;-83
2023/03/07 15:28:07;;;;;;;7.50;5.40;;;;;;;8.34;69.03;98161.90;179687;1270;60006;-82
2023/03/07 15:32:45;;;;;;;7.70;6.70;;;;;;;8.28;69.36;98160.71;179834;1269;43961;-82
2023/03/07 15:36:49;;;;;;;8.90;6.80;;;;;;;8.23;68.98;98153.84;178252;1276;44026;-82
2023/03/07 15:40:52;;;;;;;8.30;6.00;;;;;;;8.14;69.07;98151.77;178429;1276;43917;-82
2023/03/07 15:45:00;;;;;;;10.90;9.60;;;;;;;8.15;70.32;98152.05;178188;1277;44956;-82
2023/03/07 15:49:04;;;;;;;9.70;7.40;;;;;;;8.05;73.95;98147.26;178217;1278;59661;-83
2023/03/07 15:53:26;;;;;;;11.50;8.30;;;;;;;7.90;74.73;98141.23;178365;1277;44010;-82
2023/03/07 15:57:59;;;;;;;8.80;5.80;;;;;;;7.84;75.22;98138.96;178182;1276;43912;-81
2023/03/07 16:02:33;;;;;;;7.40;6.20;;;;;;;7.73;73.44;98134.16;178285;1279;44294;-81
2023/03/07 16:06:37;;;;;;;6.20;4.70;;;;;;;7.64;72.26;98138.39;178373;1276;43965;-80
2023/03/07 16:11:04;;;;;;;5.60;3.80;;;;;;;7.63;71.46;98136.97;179351;1269;58577;-82
2023/03/07 16:15:13;;;;;;;4.40;3.60;;;;;;;7.62;70.96;98137.42;179501;1269;43859;-81
2023/03/07 16:19:16;;;;;;;5.00;3.90;;;;;;;7.61;70.99;98138.02;179664;1269;44132;-82
2023/03/07 16:23:20;;;;;;;4.60;3.60;;;;;;;7.53;70.50;98134.29;179805;1269;44122;-82
2023/03/07 16:27:26;;;;;;;4.10;3.50;;;;;;;7.44;70.93;98134.88;179698;1269;43914;-82
2023/03/07 16:31:29;;;;;;;4.90;3.50;;;;;;;7.36;71.03;98138.48;179973;1270;60683;-80
2023/03/07 16:35:32;;;;;;;5.30;3.70;;;;;;;7.30;70.80;98141.90;179810;1269;43888;-81
2023/03/07 16:39:36;;;;;;;5.80;4.10;;;;;;;7.22;71.39;98142.54;179870;1269;44489;-83
2023/03/07 16:43:39;;;;;;;6.90;3.70;;;;;;;7.17;71.24;98146.05;179919;1269;43951;-82
2023/03/07 16:47:43;;;;;;;6.10;4.00;;;;;;;7.09;71.68;98151.95;179831;1269;43784;-84
2023/03/07 16:51:48;;;;;;;4.80;3.60;;;;;;;6.99;71.63;98153.61;179869;1270;59603;-84
2023/03/07 16:56:12;;;;;;;4.00;3.20;;;;;;;6.94;72.27;98155.77;179822;1270;43861;-84
2023/03/07 17:00:22;;;;;;;5.70;4.30;;;;;;;6.88;72.59;98156.71;179669;1269;216140;-84
2023/03/07 17:04:25;;;;;;;3.90;3.40;;;;;;;6.83;72.80;98162.69;179670;1269;44071;-84
2023/03/07 17:08:28;;;;;;;4.80;3.20;;;;;;;6.81;73.11;98163.42;179968;1269;43883;-85
2023/03/07 17:12:32;;;;;;;5.10;3.20;;;;;;;6.79;73.23;98164.84;179592;1270;59759;-84
2023/03/07 17:16:41;;;;;;;3.70;3.10;;;;;;;6.72;73.45;98162.88;179899;1269;44016;-84
2023/03/07 17:20:47;;;;;;;4.30;3.30;;;;;;;6.70;73.27;98165.87;179401;1269;43806;-85
2023/03/07 17:24:50;;;;;;;3.60;3.30;;;;;;;6.71;72.48;98168.80;179960;1269;43917;-84
2023/03/07 17:28:56;;;;;;;4.50;3.30;;;;;;;6.72;73.09;98172.41;179984;1269;44074;-84
2023/03/07 17:33:00;;;;;;;5.20;3.50;;;;;;;6.71;73.65;98178.07;179779;1269;59239;-84
2023/03/07 17:37:03;;;;;;;4.40;3.50;;;;;;;6.68;74.67;98178.42;179714;1270;44010;-84
2023/03/07 17:41:06;;;;;;;8.70;4.30;;;;;;;6.54;75.21;98187.49;179681;1269;43795;-84
2023/03/07 17:45:11;;;;;;;8.10;4.60;;;;;;;6.45;76.13;98188.21;179501;1270;44163;-84
2023/03/07 17:49:14;;;;;;;8.80;5.90;;;;;;;6.39;77.19;98187.33;179649;1270;43877;-85
2023/03/07 17:53:18;;;;;;;10.70;5.90;;;;;;;6.34;78.63;98192.86;179789;1269;59606;-84
2023/03/07 17:57:21;;;;;;;7.90;6.00;;;;;;;6.28;79.67;98190.75;179655;1269;43841;-83
2023/03/07 18:01:24;;;;;;;9.70;5.70;;;;;;;6.23;79.39;98188.00;179682;1269;44033;-84
2023/03/07 18:05:28;;;;;;;11.20;6.40;;;;;;;6.24;79.18;98197.14;179793;1269;45614;-84
2023/03/07 18:09:32;;;;;;;13.90;6.50;;;;;;;6.24;78.75;98193.77;179834;1269;43821;-84
2023/03/07 18:13:36;;;;;;;11.20;6.90;;;;;;;6.29;77.54;98191.88;179525;1270;59312;-84
2023/03/07 18:17:39;;;;;;;8.20;5.60;;;;;;;6.33;77.97;98190.60;179640;1269;43843;-84
2023/03/07 18:21:50;;;;;;;10.50;7.10;;;;;;;6.29;78.23;98189.27;179912;1269;44149;-84
2023/03/07 18:25:59;;;;;;;9.80;6.10;;;;;;;6.26;78.31;98188.08;179873;1270;43779;-84
2023/03/07 18:30:03;;;;;;;11.80;7.40;;;;;;;6.25;78.08;98188.58;179641;1269;43773;-83
2023/03/07 18:34:08;;;;;;;9.50;6.40;;;;;;;6.22;77.58;98187.64;180059;1269;58387;-82
2023/03/07 18:38:11;;;;;;;8.60;6.90;;;;;;;6.23;76.73;98187.57;179671;1269;44112;-83
2023/03/07 18:42:14;;;;;;;8.60;6.20;;;;;;;6.28;75.64;98183.88;180062;1270;43764;-83
2023/03/07 18:46:19;;;;;;;10.40;7.00;;;;;;;6.32;74.57;98183.52;180028;1270;43688;-83
2023/03/07 18:50:22;;;;;;;10.10;7.40;;;;;;;6.40;74.63;98184.49;179990;1270;44201;-83
2023/03/07 18:54:25;;;;;;;11.10;8.30;;;;;;;6.39;73.74;98190.50;179697;1269;59283;-83
2023/03/07 18:58:28;;;;;;;8.80;6.20;;;;;;;6.47;73.83;98186.44;179918;1269;43985;-84
2023/03/07 19:02:31;;;;;;;11.60;7.40;;;;;;;6.44;73.36;98188.82;179982;1269;43822;-83
2023/03/07 19:06:38;;;;;;;11.50;6.10;;;;;;;6.50;72.70;98189.73;179944;1269;44527;-83
2023/03/07 19:10:41;;;;;;;11.10;7.00;;;;;;;6.54;72.48;98193.90;180031;1269;43983;-83
2023/03/07 19:14:44;;;;;;;14.00;8.90;;;;;;;6.60;71.73;98193.28;179976;1269;60228;-83
2023/03/07 19:18:48;;;;;;;11.30;7.90;;;;;;;6.64;71.91;98193.42;179930;1269;44069;-83
2023/03/07 19:22:52;;;;;;;12.20;8.00;;;;;;;6.69;72.30;98197.00;179659;1270;43861;-84
2023/03/07 19:26:56;;;;;;;11.00;7.80;;;;;;;6.67;72.93;98203.32;179890;1270;43958;-83
2023/03/07 19:31:27;;;;;;;12.30;9.20;;;;;;;6.71;73.05;98203.83;179971;1269;44238;-83
2023/03/07 19:35:30;;;;;;;12.20;9.20;;;;;;;6.76;73.25;98209.04;179767;1269;58333;-84
2023/03/07 19:39:34;;;;;;;16.40;9.70;;;;;;;6.81;73.15;98210.56;179844;1270;43893;-84
2023/03/07 19:43:37;;;;;;;17.50;10.50;;;;;;;6.81;73.57;98215.18;180006;1270;43706;-84
2023/03/07 19:47:40;;;;;;;9.80;7.70;;;;;;;6.80;73.17;98211.75;179918;1270;44009;-84
2023/03/07 19:51:43;;;;;;;10.20;6.60;;;;;;;6.84;72.55;98209.90;180012;1270;43858;-84
2023/03/07 19:55:46;;;;;;;9.90;7.60;;;;;;;6.91;72.19;98214.92;179995;1270;57253;-84
2023/03/07 19:59:51;;;;;;;22.50;8.20;;;;;;;6.84;73.10;98235.44;179728;1270;44257;-83
2023/03/07 20:03:55;;;;;;;20.90;12.00;;;;;;;6.66;75.54;98245.52;179923;1269;43804;-83
2023/03/07 20:07:58;;;;;;;12.70;7.90;;;;;;;6.45;79.25;98256.67;179703;1270;44094;-82
2023/03/07 20:12:01;;;;;;;7.50;6.00;;;;;;;5.95;85.80;98282.55;179638;1270;44047;-82
2023/03/07 20:16:06;;;;;;;8.80;4.60;;;;;;;5.48;88.79;98293.57;179941;1270;61212;-85
2023/03/07 20:20:12;;;;;;;3.10;2.50;;;;;;;5.09;89.78;98298.31;179915;1269;44087;-85
2023/03/07 20:24:17;;;;;;;5.30;3.50;;;;;;;4.85;90.57;98304.86;179722;1270;44215;-84
2023/03/07 20:28:21;;;;;;;9.70;4.20;;;;;;;4.80;90.55;98313.40;179707;1269;44181;-85
2023/03/07 20:32:24;;;;;;;2.80;1.60;;;;;;;4.70;89.70;98312.20;179644;1269;44182;-85
2023/03/07 20:36:33;;;;;;;4.10;2.50;;;;;;;4.55;89.87;98319.46;179887;1269;59962;-84
2023/03/07 20:40:36;;;;;;;2.70;2.00;;;;;;;4.52;90.69;98320.22;179638;1270;44073;-87
2023/03/07 20:44:40;;;;;;;3.30;2.10;;;;;;;4.46;91.50;98323.02;179987;1269;44022;-84
2023/03/07 20:48:43;;;;;;;1.10;0.80;;;;;;;4.24;91.22;98328.80;179887;1269;43814;-85
2023/03/07 20:52:47;;;;;;;1.80;0.50;;;;;;;4.04;90.46;98332.40;179880;1269;44122;-84
2023/03/07 20:56:51;;;;;;;1.30;1.20;;;;;;;3.94;91.77;98329.09;179759;1270;60470;-84
2023/03/07 21:00:55;;;;;;;1.50;1.30;;;;;;;3.95;92.27;98329.83;179861;1269;43995;-84
2023/03/07 21:04:59;;;;;;;2.80;1.60;;;;;;;3.91;92.99;98330.17;179819;1271;44244;-84
2023/03/07 21:14:04;;;;;;;3.60;2.80;;;;;;;3.88;94.00;98333.95;180969;1266;82283;-75
2023/03/07 21:33:32;;;;;;;12.10;7.80;;;;;;;3.77;95.78;98370.69;180818;1269;43797;-75